Time;durP1;ratioP1;P1;durP2;ratioP2;P2;SDS_P1;SDS_P2;PMS_P1;PMS_P2;Temp;Humidity;BMP_temperature;BMP_pressure;BME280_temperature;BME280_humidity;BME280_pressure;Samples;Min_cycle;Max_cycle;Signal;HPM_P1;HPM_P2
2024/01/09 00:00:04;;;;;;;9.18;5.50;;;;;;;-1.28;46.71;103229.53;5057682;28;20025;-65
2024/01/09 00:02:29;;;;;;;6.63;5.40;;;;;;;-1.29;46.81;103236.84;5063531;28;20028;-66
2024/01/09 00:04:57;;;;;;;6.57;5.50;;;;;;;-1.29;46.74;103222.34;5055890;28;20032;-66
2024/01/09 00:07:23;;;;;;;7.18;5.60;;;;;;;-1.37;46.79;103228.38;5062571;28;20031;-63
2024/01/09 00:09:48;;;;;;;6.95;5.32;;;;;;;-1.39;47.15;103230.34;5059623;28;20032;-63
2024/01/09 00:12:13;;;;;;;5.93;5.28;;;;;;;-1.33;47.02;103231.75;5052008;28;20037;-65
2024/01/09 00:14:39;;;;;;;7.50;5.78;;;;;;;-1.37;47.01;103233.84;5052740;28;20073;-63
2024/01/09 00:17:04;;;;;;;6.72;5.30;;;;;;;-1.36;47.32;103230.13;5051418;28;20751;-65
2024/01/09 00:19:29;;;;;;;6.28;5.65;;;;;;;-1.33;47.44;103221.72;5051263;28;20498;-64
2024/01/09 00:21:55;;;;;;;7.13;5.53;;;;;;;-1.33;47.30;103221.72;5050625;28;20028;-64
2024/01/09 00:24:21;;;;;;;7.65;5.63;;;;;;;-1.33;47.35;103223.56;5064647;28;20066;-63
2024/01/09 00:26:46;;;;;;;7.10;5.25;;;;;;;-1.35;47.49;103229.13;5042257;28;20111;-63
2024/01/09 00:29:11;;;;;;;8.07;5.63;;;;;;;-1.39;47.55;103227.63;5065308;28;20171;-64
2024/01/09 00:31:37;;;;;;;7.03;5.55;;;;;;;-1.35;47.53;103223.66;5045709;28;20484;-63
2024/01/09 00:34:02;;;;;;;7.20;6.10;;;;;;;-1.35;47.82;103223.66;5048148;28;20047;-63
2024/01/09 00:36:27;;;;;;;7.53;5.43;;;;;;;-1.32;47.72;103223.44;5060344;28;20468;-64
2024/01/09 00:38:53;;;;;;;9.80;5.55;;;;;;;-1.32;47.58;103223.44;5070969;28;20031;-63
2024/01/09 00:41:18;;;;;;;7.45;5.57;;;;;;;-1.33;47.76;103221.72;5086021;28;20040;-63
2024/01/09 00:43:44;;;;;;;7.50;5.38;;;;;;;-1.35;47.70;103222.81;5068031;28;20083;-63
2024/01/09 00:46:09;;;;;;;7.15;5.45;;;;;;;-1.33;47.98;103218.13;5073762;28;20501;-63
2024/01/09 00:48:34;;;;;;;6.30;5.25;;;;;;;-1.35;47.99;103222.81;5063476;28;20037;-63
2024/01/09 00:51:00;;;;;;;7.47;5.75;;;;;;;-1.36;47.63;103221.09;5051204;28;20031;-64
2024/01/09 00:53:25;;;;;;;6.70;5.53;;;;;;;-1.36;47.88;103221.09;5069365;28;20395;-64
2024/01/09 00:55:50;;;;;;;7.05;5.15;;;;;;;-1.33;48.18;103215.41;5091565;28;20562;-64
2024/01/09 00:58:16;;;;;;;6.85;5.88;;;;;;;-1.35;47.48;103220.09;5091285;28;20127;-64
2024/01/09 01:00:41;;;;;;;7.35;5.88;;;;;;;-1.41;47.39;103218.72;5090418;28;20035;-64
2024/01/09 01:03:09;;;;;;;7.95;5.32;;;;;;;-1.47;47.72;103219.16;5087655;28;20024;-64
2024/01/09 01:05:34;;;;;;;6.60;5.35;;;;;;;-1.47;48.06;103219.16;5060111;28;20036;-64
2024/01/09 01:08:00;;;;;;;6.65;5.93;;;;;;;-1.44;48.44;103213.50;5052127;28;20043;-64
2024/01/09 01:10:28;;;;;;;7.10;5.45;;;;;;;-1.39;47.79;103219.44;5056917;28;20148;-64
2024/01/09 01:12:53;;;;;;;7.18;5.85;;;;;;;-1.40;47.87;103219.56;5072181;28;20032;-64
2024/01/09 01:15:18;;;;;;;6.60;5.57;;;;;;;-1.40;48.10;103216.84;5070474;28;20379;-64
2024/01/09 01:17:44;;;;;;;6.85;5.82;;;;;;;-1.41;47.91;103224.16;5061707;28;20438;-64
2024/01/09 01:20:10;;;;;;;5.72;5.15;;;;;;;-1.38;47.62;103220.31;5055309;28;20104;-64
2024/01/09 01:22:35;;;;;;;6.65;5.55;;;;;;;-1.45;48.46;103219.94;5050562;28;20361;-64
2024/01/09 01:25:01;;;;;;;7.43;5.45;;;;;;;-1.42;47.71;103222.41;5065138;28;20028;-64
2024/01/09 01:27:29;;;;;;;6.32;5.28;;;;;;;-1.42;47.69;103216.09;5090075;28;20085;-64
2024/01/09 01:29:55;;;;;;;6.82;5.40;;;;;;;-1.40;48.10;103220.44;5090960;28;20067;-64
2024/01/09 01:32:20;;;;;;;7.38;5.78;;;;;;;-1.39;48.04;103227.63;5067310;28;20075;-64
2024/01/09 01:34:48;;;;;;;5.75;5.03;;;;;;;-1.42;47.63;103221.53;5062197;28;20109;-64
2024/01/09 01:37:14;;;;;;;7.80;5.53;;;;;;;-1.46;48.19;103226.34;5077990;28;20141;-64
2024/01/09 01:39:39;;;;;;;7.78;5.05;;;;;;;-1.50;47.84;103228.41;5090766;28;20122;-64
2024/01/09 01:42:04;;;;;;;7.03;5.30;;;;;;;-1.51;47.85;103234.00;5090475;28;20025;-64
2024/01/09 01:44:29;;;;;;;5.95;5.13;;;;;;;-1.54;47.83;103237.81;5090975;28;20046;-64
2024/01/09 01:46:55;;;;;;;7.03;5.15;;;;;;;-1.58;47.87;103230.84;5076320;28;20036;-64
2024/01/09 01:49:21;;;;;;;7.10;5.65;;;;;;;-1.65;48.14;103224.16;5069558;28;20126;-64
2024/01/09 01:51:50;;;;;;;6.43;5.30;;;;;;;-1.62;48.41;103228.47;5069951;28;20069;-65
2024/01/09 01:54:16;;;;;;;6.57;5.55;;;;;;;-1.59;48.37;103229.13;5068165;28;20020;-64
2024/01/09 01:56:42;;;;;;;6.93;5.80;;;;;;;-1.60;48.22;103221.94;5053745;28;20033;-64
2024/01/09 01:59:09;;;;;;;6.82;5.57;;;;;;;-1.62;48.45;103217.59;5054618;28;20099;-65
2024/01/09 02:01:35;;;;;;;6.30;5.05;;;;;;;-1.58;48.45;103225.41;5054140;28;20468;-64
2024/01/09 02:04:01;;;;;;;6.40;5.03;;;;;;;-1.57;48.33;103227.16;5079915;28;20119;-64
2024/01/09 02:06:30;;;;;;;5.80;5.20;;;;;;;-1.53;48.09;103222.38;5094889;28;20085;-64
2024/01/09 02:08:56;;;;;;;5.75;5.00;;;;;;;-1.56;47.69;103225.31;5093903;28;20428;-64
2024/01/09 02:11:21;;;;;;;6.20;5.32;;;;;;;-1.57;47.99;103229.00;5073417;28;20032;-63
2024/01/09 02:13:52;;;;;;;6.60;5.20;;;;;;;-1.58;48.26;103227.28;5082115;28;20035;-64
2024/01/09 02:16:17;;;;;;;5.57;5.00;;;;;;;-1.61;47.88;103213.88;5062269;28;20050;-64
2024/01/09 02:18:43;;;;;;;7.63;5.20;;;;;;;-1.62;48.17;103226.63;5093607;28;20024;-63
2024/01/09 02:21:11;;;;;;;5.82;5.05;;;;;;;-1.65;48.26;103221.44;5059456;28;20052;-64
2024/01/09 02:23:36;;;;;;;6.45;5.30;;;;;;;-1.67;48.33;103217.06;5060614;28;20107;-64
2024/01/09 02:26:01;;;;;;;7.05;5.15;;;;;;;-1.68;48.39;103218.06;5093792;28;20118;-64
2024/01/09 02:28:30;;;;;;;5.70;5.03;;;;;;;-1.74;48.38;103214.81;5092856;28;20032;-64
2024/01/09 02:30:56;;;;;;;7.03;5.38;;;;;;;-1.80;48.20;103209.81;5073271;28;20047;-64
2024/01/09 02:33:22;;;;;;;7.38;5.90;;;;;;;-1.79;48.47;103203.41;5087816;28;20111;-65
2024/01/09 02:35:47;;;;;;;6.32;4.68;;;;;;;-1.74;48.66;103211.22;5093606;28;20107;-64
2024/01/09 02:38:12;;;;;;;5.93;5.32;;;;;;;-1.80;48.95;103215.28;5078692;28;20035;-63
2024/01/09 02:40:41;;;;;;;5.93;5.28;;;;;;;-1.81;48.95;103210.81;5059736;28;20503;-64
2024/01/09 02:43:07;;;;;;;5.88;5.18;;;;;;;-1.85;48.66;103212.00;5053697;28;20029;-64
2024/01/09 02:45:33;;;;;;;7.30;5.85;;;;;;;-1.80;48.74;103201.66;5047122;28;20056;-64
2024/01/09 02:47:58;;;;;;;6.63;5.40;;;;;;;-1.76;48.77;103205.91;5053717;28;20357;-64
2024/01/09 02:50:26;;;;;;;6.65;5.30;;;;;;;-1.72;48.86;103201.09;5053577;28;20025;-65
2024/01/09 02:52:51;;;;;;;10.20;5.63;;;;;;;-1.73;48.73;103194.78;5055961;28;20479;-64
2024/01/09 02:55:17;;;;;;;6.65;5.38;;;;;;;-1.77;48.18;103193.28;5073566;28;20028;-64
2024/01/09 02:57:42;;;;;;;7.13;4.82;;;;;;;-1.80;48.89;103200.78;5050969;28;20343;-64
2024/01/09 03:00:08;;;;;;;7.35;5.07;;;;;;;-1.78;49.08;103198.81;5052309;28;20039;-64
2024/01/09 03:02:34;;;;;;;6.60;5.00;;;;;;;-1.80;48.85;103193.50;5072432;28;20147;-64
2024/01/09 03:05:00;;;;;;;7.95;5.18;;;;;;;-1.77;48.79;103193.28;5073096;28;20028;-64
2024/01/09 03:07:25;;;;;;;7.82;5.25;;;;;;;-1.80;49.03;103190.78;5069661;28;20025;-64
2024/01/09 03:09:51;;;;;;;5.95;4.75;;;;;;;-1.80;48.95;103185.31;5073142;28;20079;-64
2024/01/09 03:12:16;;;;;;;6.80;5.40;;;;;;;-1.80;49.31;103185.31;5057433;28;20350;-64
2024/01/09 03:14:41;;;;;;;7.53;5.45;;;;;;;-1.80;49.21;103185.31;5056472;28;20451;-64
2024/01/09 03:17:07;;;;;;;5.15;4.60;;;;;;;-1.83;49.13;103185.56;5044684;28;20035;-64
2024/01/09 03:19:32;;;;;;;6.57;5.28;;;;;;;-1.86;49.41;103190.34;5036441;28;20045;-64
2024/01/09 03:21:58;;;;;;;6.10;5.20;;;;;;;-1.85;48.99;103192.09;5032503;28;20060;-64
2024/01/09 03:24:23;;;;;;;6.18;5.13;;;;;;;-1.87;49.00;103189.47;5032799;28;20492;-64
2024/01/09 03:26:48;;;;;;;6.00;5.22;;;;;;;-1.93;48.89;103195.38;5032508;28;20100;-64
2024/01/09 03:29:17;;;;;;;6.25;5.18;;;;;;;-1.99;49.36;103188.53;5041864;28;20486;-64
2024/01/09 03:31:43;;;;;;;7.13;5.70;;;;;;;-2.00;49.57;103188.66;5033880;28;20374;-63
2024/01/09 03:34:08;;;;;;;6.25;5.63;;;;;;;-1.97;49.58;103191.16;5050670;28;20035;-64
2024/01/09 03:36:33;;;;;;;6.47;5.50;;;;;;;-1.92;49.73;103199.84;5036639;28;20096;-64
2024/01/09 03:38:59;;;;;;;6.47;5.47;;;;;;;-1.94;49.59;103195.50;5058992;28;20437;-64
2024/01/09 03:41:24;;;;;;;6.50;5.30;;;;;;;-1.96;49.78;103192.91;5067393;28;20056;-64
2024/01/09 03:43:50;;;;;;;7.47;5.60;;;;;;;-1.99;49.63;103184.97;5086916;28;20040;-65
2024/01/09 03:46:15;;;;;;;7.20;5.40;;;;;;;-2.06;49.89;103189.09;5082978;28;20509;-66
2024/01/09 03:48:40;;;;;;;7.85;5.55;;;;;;;-2.01;49.89;103193.22;5079900;28;20040;-63
2024/01/09 03:51:06;;;;;;;6.00;4.97;;;;;;;-2.06;49.49;103184.53;5080552;28;20028;-63
2024/01/09 03:53:34;;;;;;;6.03;5.43;;;;;;;-2.10;49.53;103188.47;5092329;28;20020;-64
2024/01/09 03:55:59;;;;;;;6.20;5.30;;;;;;;-2.08;50.09;103186.50;5078916;28;20063;-65
2024/01/09 03:58:30;;;;;;;7.18;5.60;;;;;;;-2.09;49.91;103178.44;5065165;28;20598;-64
2024/01/09 04:00:56;;;;;;;6.30;5.60;;;;;;;-2.04;49.96;103187.16;5079480;28;20031;-64
2024/01/09 04:03:22;;;;;;;7.40;5.88;;;;;;;-2.01;50.36;103192.34;5067475;28;20106;-64
2024/01/09 04:05:47;;;;;;;6.22;5.50;;;;;;;-2.00;50.00;103194.13;5052144;28;20025;-64
2024/01/09 04:08:14;;;;;;;6.57;5.65;;;;;;;-2.00;49.94;103189.53;5051944;28;20025;-64
2024/01/09 04:10:42;;;;;;;6.65;5.45;;;;;;;-2.04;50.04;103182.59;5088692;28;20038;-64
2024/01/09 04:13:07;;;;;;;5.97;5.15;;;;;;;-2.10;49.98;103176.72;5092214;28;20128;-64
2024/01/09 04:15:34;;;;;;;6.90;5.85;;;;;;;-2.17;50.26;103176.28;5091628;28;20494;-64
2024/01/09 04:18:00;;;;;;;7.75;5.97;;;;;;;-2.23;50.54;103174.91;5081358;28;20068;-64
2024/01/09 04:20:26;;;;;;;6.25;5.45;;;;;;;-2.27;50.17;103178.81;5061989;28;20161;-64
2024/01/09 04:22:54;;;;;;;6.78;5.45;;;;;;;-2.30;50.38;103186.34;5056766;28;20837;-64
2024/01/09 04:25:19;;;;;;;6.20;5.45;;;;;;;-2.33;50.63;103181.97;5051292;28;20391;-64
2024/01/09 04:27:44;;;;;;;6.15;5.50;;;;;;;-2.28;50.84;103185.25;5051885;28;20017;-64
2024/01/09 04:30:10;;;;;;;6.85;5.40;;;;;;;-2.25;50.87;103190.44;5077562;28;20095;-64
2024/01/09 04:32:36;;;;;;;11.00;5.88;;;;;;;-2.20;50.78;103191.97;5082746;28;20029;-64
2024/01/09 04:35:01;;;;;;;7.95;6.15;;;;;;;-2.19;50.68;103183.72;5076855;28;20028;-64
2024/01/09 04:37:27;;;;;;;7.28;5.57;;;;;;;-2.16;50.55;103188.03;5074481;28;20101;-65
2024/01/09 04:39:52;;;;;;;5.90;5.05;;;;;;;-2.17;50.74;103191.75;5065942;28;20539;-64
2024/01/09 04:42:17;;;;;;;7.72;5.82;;;;;;;-2.20;50.55;103192.88;5057492;28;20025;-64
2024/01/09 04:44:42;;;;;;;6.15;5.55;;;;;;;-2.14;50.34;103192.41;5056659;28;20049;-64
2024/01/09 04:47:13;;;;;;;7.10;5.18;;;;;;;-2.12;50.77;103189.53;5090987;28;20043;-64
2024/01/09 04:49:38;;;;;;;7.90;5.10;;;;;;;-2.08;50.36;103193.81;5091479;28;20053;-64
2024/01/09 04:52:03;;;;;;;6.00;5.40;;;;;;;-2.08;50.40;103196.53;5090579;28;20907;-64
2024/01/09 04:54:29;;;;;;;7.03;5.22;;;;;;;-2.06;50.76;103191.84;5091416;28;20020;-64
2024/01/09 04:56:54;;;;;;;7.10;5.68;;;;;;;-2.06;50.36;103191.84;5068623;28;20039;-64
2024/01/09 04:59:19;;;;;;;6.90;5.68;;;;;;;-2.07;50.71;103188.25;5057355;28;20033;-64
2024/01/09 05:01:49;;;;;;;6.95;5.70;;;;;;;-2.09;50.06;103186.59;5076347;28;20479;-65
2024/01/09 05:04:14;;;;;;;6.53;5.70;;;;;;;-2.12;50.54;103186.81;5066739;28;20032;-64
2024/01/09 05:06:40;;;;;;;7.00;6.05;;;;;;;-2.13;50.58;103182.38;5090061;28;20135;-64
2024/01/09 05:09:05;;;;;;;8.10;6.22;;;;;;;-2.17;50.79;103186.31;5091129;28;20020;-64
2024/01/09 05:11:30;;;;;;;6.53;5.70;;;;;;;-2.19;50.46;103177.41;5081742;28;20050;-64
2024/01/09 05:13:55;;;;;;;8.35;5.50;;;;;;;-2.20;50.42;103186.53;5065796;28;20020;-64
2024/01/09 05:16:21;;;;;;;7.82;5.85;;;;;;;-2.22;50.41;103189.38;5065386;28;20374;-64
2024/01/09 05:18:46;;;;;;;6.95;5.95;;;;;;;-2.25;50.54;103190.44;5056308;28;20408;-65
2024/01/09 05:21:11;;;;;;;7.55;5.90;;;;;;;-2.20;50.20;103184.69;5067270;28;20028;-64
2024/01/09 05:23:40;;;;;;;6.00;5.40;;;;;;;-2.17;50.75;103181.72;5090421;28;20035;-64
2024/01/09 05:26:06;;;;;;;6.63;5.70;;;;;;;-2.19;50.32;103193.72;5073876;28;20060;-64
2024/01/09 05:28:31;;;;;;;7.63;5.47;;;;;;;-2.20;50.58;103191.97;5050155;28;20017;-64
2024/01/09 05:30:57;;;;;;;7.10;5.90;;;;;;;-2.20;50.50;103189.25;5069044;28;20024;-64
2024/01/09 05:33:22;;;;;;;6.18;5.32;;;;;;;-2.20;50.55;103192.88;5088444;28;20025;-64
2024/01/09 05:35:47;;;;;;;6.88;5.68;;;;;;;-2.19;50.87;103188.28;5070012;28;20033;-64
2024/01/09 05:38:12;;;;;;;7.97;6.05;;;;;;;-2.17;50.52;103181.72;5080539;28;20033;-63
2024/01/09 05:40:38;;;;;;;6.18;5.45;;;;;;;-2.17;50.73;103180.88;5077506;28;20079;-63
2024/01/09 05:43:03;;;;;;;6.53;5.60;;;;;;;-2.17;50.46;103180.88;5070786;28;20028;-63
2024/01/09 05:45:28;;;;;;;6.93;6.05;;;;;;;-2.17;50.28;103178.16;5055391;28;20123;-63
2024/01/09 05:47:54;;;;;;;9.57;6.28;;;;;;;-2.13;50.96;103182.38;5063445;28;20024;-63
2024/01/09 05:50:19;;;;;;;7.15;5.93;;;;;;;-2.14;50.59;103192.41;5057250;28;20120;-63
2024/01/09 05:52:44;;;;;;;8.10;6.07;;;;;;;-2.17;50.71;103180.88;5055356;28;20110;-64
2024/01/09 05:55:09;;;;;;;6.43;5.53;;;;;;;-2.15;50.53;103184.34;5053503;28;20095;-63
2024/01/09 05:57:35;;;;;;;9.20;6.95;;;;;;;-2.14;50.54;103192.41;5063990;28;20044;-63
2024/01/09 06:00:00;;;;;;;7.32;5.95;;;;;;;-2.15;50.24;103192.53;5073879;28;20060;-64
2024/01/09 06:02:26;;;;;;;7.70;6.20;;;;;;;-2.13;50.50;103187.81;5060684;28;20072;-63
2024/01/09 06:04:51;;;;;;;7.05;5.75;;;;;;;-2.12;50.68;103189.53;5069097;28;20013;-63
2024/01/09 06:07:17;;;;;;;7.18;5.63;;;;;;;-2.14;50.48;103189.69;5074180;28;20043;-64
2024/01/09 06:09:43;;;;;;;7.65;6.22;;;;;;;-2.15;50.44;103182.50;5059279;28;20032;-64
2024/01/09 06:12:08;;;;;;;6.47;5.75;;;;;;;-2.15;50.69;103178.91;5054623;28;20040;-64
2024/01/09 06:14:33;;;;;;;7.32;5.63;;;;;;;-2.12;50.78;103179.56;5056526;28;20123;-64
2024/01/09 06:16:59;;;;;;;9.70;5.82;;;;;;;-2.10;50.47;103182.16;5062724;28;20479;-63
2024/01/09 06:19:24;;;;;;;8.13;6.40;;;;;;;-2.11;50.89;103177.72;5063734;28;20086;-64
2024/01/09 06:21:53;;;;;;;8.43;6.28;;;;;;;-2.11;50.22;103183.16;5057558;28;20071;-64
2024/01/09 06:24:18;;;;;;;8.05;6.55;;;;;;;-2.13;50.63;103179.66;5071216;28;20202;-63
2024/01/09 06:26:43;;;;;;;6.70;6.00;;;;;;;-2.15;50.35;103189.81;5062171;28;20137;-63
2024/01/09 06:29:09;;;;;;;9.00;6.32;;;;;;;-2.16;50.74;103191.66;5066821;28;20498;-65
2024/01/09 06:31:35;;;;;;;7.75;6.32;;;;;;;-2.15;50.65;103197.97;5060257;28;20037;-63
2024/01/09 06:34:00;;;;;;;8.38;6.25;;;;;;;-2.15;50.47;103197.97;5069518;28;20040;-63
2024/01/09 06:36:25;;;;;;;7.68;6.20;;;;;;;-2.17;50.96;103195.34;5066895;28;20441;-63
2024/01/09 06:38:50;;;;;;;8.30;6.18;;;;;;;-2.15;50.75;103206.13;5062874;28;20036;-63
2024/01/09 06:41:16;;;;;;;6.47;5.50;;;;;;;-2.13;50.83;103209.59;5067400;28;20051;-63
2024/01/09 06:43:41;;;;;;;7.07;5.72;;;;;;;-2.13;50.70;103215.03;5073500;28;20064;-63
2024/01/09 06:46:06;;;;;;;7.68;5.72;;;;;;;-2.15;50.62;103208.84;5062860;28;20081;-63
2024/01/09 06:48:32;;;;;;;7.68;6.35;;;;;;;-2.16;50.57;103215.25;5070503;28;20042;-63
2024/01/09 06:50:57;;;;;;;9.30;6.55;;;;;;;-2.16;50.70;103220.69;5060769;28;20099;-64
2024/01/09 06:53:23;;;;;;;7.07;6.22;;;;;;;-2.15;50.64;103220.59;5053773;28;20071;-64
2024/01/09 06:55:48;;;;;;;6.95;5.85;;;;;;;-2.15;50.54;103211.56;5053790;28;20040;-62
2024/01/09 06:58:16;;;;;;;7.18;6.22;;;;;;;-2.18;50.54;103217.22;5057769;28;20383;-62
2024/01/09 07:00:44;;;;;;;8.60;6.38;;;;;;;-2.24;50.79;103223.97;5054011;28;20036;-63
2024/01/09 07:03:10;;;;;;;10.35;6.63;;;;;;;-2.32;50.98;103216.38;5052030;28;20075;-63
2024/01/09 07:05:35;;;;;;;6.97;6.18;;;;;;;-2.36;50.79;103217.56;5059713;28;20427;-63
2024/01/09 07:08:01;;;;;;;7.47;6.10;;;;;;;-2.41;51.50;103217.03;5059273;28;20028;-62
2024/01/09 07:10:26;;;;;;;7.38;6.13;;;;;;;-2.42;52.75;103215.28;5063374;28;20575;-62
2024/01/09 07:12:51;;;;;;;8.57;6.38;;;;;;;-2.44;51.57;103211.81;5058619;28;20361;-62
2024/01/09 07:15:19;;;;;;;8.07;6.50;;;;;;;-2.44;51.51;103224.53;5054326;28;20082;-63
2024/01/09 07:17:46;;;;;;;8.73;6.45;;;;;;;-2.47;51.64;103218.34;5052846;28;20094;-63
2024/01/09 07:20:11;;;;;;;8.40;6.93;;;;;;;-2.50;51.65;103217.69;5062950;28;20033;-61
2024/01/09 07:22:37;;;;;;;7.40;6.32;;;;;;;-2.48;51.92;103223.88;5066261;28;20043;-62
2024/01/09 07:25:03;;;;;;;9.07;7.38;;;;;;;-2.50;51.53;103220.41;5067913;28;20115;-62
2024/01/09 07:27:28;;;;;;;9.95;6.78;;;;;;;-2.54;51.64;103219.75;5053227;28;20056;-62
2024/01/09 07:29:53;;;;;;;8.18;6.75;;;;;;;-2.52;51.50;103223.22;5063045;28;20155;-63
2024/01/09 07:32:19;;;;;;;9.80;6.90;;;;;;;-2.52;52.08;103225.06;5056156;28;20040;-63
2024/01/09 07:34:44;;;;;;;9.05;6.45;;;;;;;-2.45;51.78;103231.81;5066689;28;20464;-63
2024/01/09 07:37:09;;;;;;;8.93;7.00;;;;;;;-2.45;51.90;103231.81;5068205;28;20166;-63
2024/01/09 07:39:35;;;;;;;9.05;6.88;;;;;;;-2.46;51.69;103243.69;5062574;28;20036;-62
2024/01/09 07:42:01;;;;;;;10.27;7.63;;;;;;;-2.45;51.54;103247.28;5068442;28;20029;-61
2024/01/09 07:44:26;;;;;;;9.35;7.13;;;;;;;-2.45;51.43;103242.72;5056938;28;20025;-62
2024/01/09 07:46:51;;;;;;;7.63;6.45;;;;;;;-2.46;51.74;103240.97;5060303;28;20051;-63
2024/01/09 07:49:17;;;;;;;9.68;7.25;;;;;;;-2.46;51.89;103254.56;5065655;28;20651;-62
2024/01/09 07:51:42;;;;;;;9.18;7.03;;;;;;;-2.45;51.50;103252.72;5071136;28;20055;-63
2024/01/09 07:54:07;;;;;;;9.68;7.30;;;;;;;-2.47;51.80;103255.56;5061322;28;20025;-63
2024/01/09 07:56:32;;;;;;;9.07;6.95;;;;;;;-2.54;51.62;103255.09;5059373;28;20040;-62
2024/01/09 07:58:58;;;;;;;8.65;7.13;;;;;;;-2.57;51.54;103249.88;5070507;28;20100;-63
2024/01/09 08:01:24;;;;;;;8.57;7.15;;;;;;;-2.54;51.78;103251.53;5090629;28;20490;-64
2024/01/09 08:03:50;;;;;;;10.82;7.35;;;;;;;-2.54;51.98;103254.25;5088497;28;20028;-64
2024/01/09 08:06:16;;;;;;;8.52;7.55;;;;;;;-2.52;51.37;103249.56;5079709;28;20059;-64
2024/01/09 08:08:41;;;;;;;8.93;7.43;;;;;;;-2.53;51.66;103245.09;5080889;28;20361;-62
2024/01/09 08:11:07;;;;;;;12.07;7.32;;;;;;;-2.50;51.94;103253.91;5090690;28;20020;-63
2024/01/09 08:13:32;;;;;;;10.73;7.43;;;;;;;-2.51;51.64;103257.63;5083949;28;20097;-63
2024/01/09 08:15:58;;;;;;;8.27;7.03;;;;;;;-2.52;52.71;103268.59;5084228;28;20035;-64
2024/01/09 08:18:23;;;;;;;10.52;7.35;;;;;;;-2.53;52.28;103259.56;5090429;28;20032;-65
2024/01/09 08:20:49;;;;;;;10.27;7.75;;;;;;;-2.51;52.51;103270.34;5090263;28;20107;-65
2024/01/09 08:23:15;;;;;;;8.73;7.47;;;;;;;-2.54;52.18;103279.59;5081482;28;20020;-64
2024/01/09 08:25:41;;;;;;;10.30;7.75;;;;;;;-2.55;52.28;103263.38;5087477;28;20066;-64
2024/01/09 08:28:06;;;;;;;8.23;6.72;;;;;;;-2.57;52.05;103268.06;5085874;28;20060;-64
2024/01/09 08:30:32;;;;;;;9.45;7.60;;;;;;;-2.58;52.57;103274.47;5079119;28;20029;-64
2024/01/09 08:32:57;;;;;;;9.77;7.53;;;;;;;-2.58;52.43;103275.34;5064357;28;20024;-65
2024/01/09 08:35:22;;;;;;;9.93;7.40;;;;;;;-2.59;52.40;103270.03;5076215;28;20040;-65
2024/01/09 08:37:47;;;;;;;8.45;7.20;;;;;;;-2.62;52.03;103270.22;5073390;28;20032;-67
2024/01/09 08:40:14;;;;;;;9.02;7.78;;;;;;;-2.62;52.82;103272.94;5072704;28;20082;-65
2024/01/09 08:42:39;;;;;;;11.15;7.85;;;;;;;-2.61;52.65;103286.41;5066592;28;20036;-65
2024/01/09 08:45:11;;;;;;;11.75;8.40;;;;;;;-2.65;52.23;103276.75;5062591;28;20391;-65
2024/01/09 08:47:37;;;;;;;10.40;8.40;;;;;;;-2.67;52.12;103280.53;5064601;28;20036;-70
2024/01/09 08:50:03;;;;;;;11.40;8.43;;;;;;;-2.68;52.79;103281.53;5056721;28;20031;-65
2024/01/09 08:52:28;;;;;;;10.65;7.88;;;;;;;-2.68;52.31;103274.22;5089752;28;20039;-65
2024/01/09 08:54:54;;;;;;;10.43;8.05;;;;;;;-2.66;52.20;103282.28;5090434;28;20111;-64
2024/01/09 08:57:20;;;;;;;11.13;8.30;;;;;;;-2.63;52.37;103271.19;5090028;28;20115;-63
2024/01/09 08:59:45;;;;;;;11.77;8.13;;;;;;;-2.58;52.56;103283.50;5085881;28;20155;-63
2024/01/09 09:02:11;;;;;;;10.02;7.88;;;;;;;-2.54;52.02;103290.47;5083888;28;20038;-64
2024/01/09 09:04:36;;;;;;;10.07;8.20;;;;;;;-2.55;52.20;103287.88;5066026;28;20066;-64
2024/01/09 09:07:07;;;;;;;11.27;8.25;;;;;;;-2.58;52.32;103288.94;5065110;28;20066;-65
2024/01/09 09:09:35;;;;;;;11.40;8.07;;;;;;;-2.62;52.24;103289.25;5065329;28;20463;-65
2024/01/09 09:12:01;;;;;;;10.55;7.97;;;;;;;-2.64;52.21;103291.19;5065586;28;20472;-65
2024/01/09 09:14:26;;;;;;;9.57;8.05;;;;;;;-2.66;52.29;103287.75;5070376;28;20017;-66
2024/01/09 09:16:51;;;;;;;10.35;8.02;;;;;;;-2.67;51.97;103291.41;5067153;28;20032;-65
2024/01/09 09:19:17;;;;;;;12.43;8.20;;;;;;;-2.66;52.24;103293.19;5057699;28;20464;-66
2024/01/09 09:21:43;;;;;;;9.95;7.82;;;;;;;-2.70;51.68;103297.94;5089742;28;20020;-65
2024/01/09 09:24:09;;;;;;;10.65;8.30;;;;;;;-2.70;52.13;103295.22;5090566;28;20023;-65
2024/01/09 09:26:35;;;;;;;10.45;8.43;;;;;;;-2.64;51.93;103288.47;5079647;28;20038;-65
2024/01/09 09:29:00;;;;;;;10.50;8.05;;;;;;;-2.62;51.60;103294.69;5072003;28;20446;-62
2024/01/09 09:31:25;;;;;;;11.27;8.82;;;;;;;-2.57;51.70;103289.81;5065002;28;20032;-63
2024/01/09 09:33:50;;;;;;;10.57;8.38;;;;;;;-2.57;51.25;103287.94;5089291;28;20563;-63
2024/01/09 09:36:16;;;;;;;12.30;8.13;;;;;;;-2.51;51.40;103292.09;5064677;28;20025;-63
2024/01/09 09:38:42;;;;;;;9.82;7.60;;;;;;;-2.49;50.93;103290.13;5054255;28;20029;-64
2024/01/09 09:41:07;;;;;;;12.00;7.80;;;;;;;-2.46;51.16;103289.91;5060072;28;20090;-63
2024/01/09 09:43:35;;;;;;;11.98;8.00;;;;;;;-2.41;51.13;103286.88;5069961;28;20459;-63
2024/01/09 09:46:05;;;;;;;10.60;7.85;;;;;;;-2.34;51.32;103275.44;5070391;28;20052;-63
2024/01/09 09:48:31;;;;;;;10.35;7.90;;;;;;;-2.24;50.96;103273.81;5069047;28;20043;-63
2024/01/09 09:50:58;;;;;;;9.82;7.88;;;;;;;-2.13;50.36;103275.75;5070250;28;20040;-63
2024/01/09 09:53:27;;;;;;;12.10;8.40;;;;;;;-2.02;50.20;103277.72;5068704;28;20020;-63
2024/01/09 09:55:53;;;;;;;9.13;7.72;;;;;;;-1.95;50.14;103268.13;5060141;28;20467;-63
2024/01/09 09:58:19;;;;;;;9.15;7.68;;;;;;;-1.89;49.98;103273.09;5051975;28;20036;-64
2024/01/09 10:00:44;;;;;;;9.70;7.43;;;;;;;-1.86;49.61;103277.47;5049055;28;20353;-63
2024/01/09 10:03:11;;;;;;;11.10;7.85;;;;;;;-1.75;49.76;103275.69;5050293;28;20029;-64
2024/01/09 10:05:40;;;;;;;10.55;8.23;;;;;;;-1.58;49.23;103268.13;5049660;28;20051;-63
2024/01/09 10:08:09;;;;;;;10.07;8.32;;;;;;;-1.52;48.84;103268.53;5048738;28;20059;-64
2024/01/09 10:10:34;;;;;;;8.82;7.20;;;;;;;-1.40;48.50;103261.31;5049450;28;20480;-63
2024/01/09 10:12:59;;;;;;;9.25;7.47;;;;;;;-1.30;48.24;103272.34;5049893;28;20029;-64
2024/01/09 10:15:25;;;;;;;10.50;8.13;;;;;;;-1.20;48.39;103258.94;5052384;28;20083;-63
2024/01/09 10:17:51;;;;;;;12.13;8.23;;;;;;;-1.07;47.90;103260.56;5060640;28;20036;-63
2024/01/09 10:20:17;;;;;;;12.30;7.32;;;;;;;-0.95;47.71;103258.75;5073498;28;20035;-63
2024/01/09 10:22:42;;;;;;;12.20;7.63;;;;;;;-0.86;47.44;103254.47;5072594;28;20033;-64
2024/01/09 10:25:12;;;;;;;10.75;8.23;;;;;;;-0.78;47.01;103261.06;5056115;28;20025;-64
2024/01/09 10:27:39;;;;;;;10.95;7.85;;;;;;;-0.70;46.84;103254.16;5065698;28;20036;-64
2024/01/09 10:30:09;;;;;;;10.05;7.82;;;;;;;-0.66;47.00;103248.31;5072686;28;20067;-63
2024/01/09 10:32:36;;;;;;;9.27;7.32;;;;;;;-0.55;46.67;103251.09;5056720;28;20033;-63
2024/01/09 10:35:03;;;;;;;12.57;8.25;;;;;;;-0.53;46.29;103251.81;5073012;28;20479;-63
2024/01/09 10:37:33;;;;;;;11.23;7.78;;;;;;;-0.47;46.72;103241.41;5070400;28;20107;-63
2024/01/09 10:40:00;;;;;;;10.88;7.88;;;;;;;-0.37;46.66;103247.88;5072859;28;20076;-63
2024/01/09 10:42:27;;;;;;;9.25;7.60;;;;;;;-0.33;46.46;103242.03;5072958;28;20464;-63
2024/01/09 10:44:57;;;;;;;9.57;7.15;;;;;;;-0.35;45.67;103252.22;5070760;28;20139;-63
2024/01/09 10:47:23;;;;;;;11.98;7.05;;;;;;;-0.35;45.79;103246.75;5072787;28;20036;-63
2024/01/09 10:49:52;;;;;;;10.73;7.82;;;;;;;-0.36;45.86;103236.81;5061782;28;20423;-63
2024/01/09 10:52:18;;;;;;;10.80;7.45;;;;;;;-0.33;45.18;103236.56;5052686;28;20028;-61
2024/01/09 10:54:44;;;;;;;10.65;7.90;;;;;;;-0.32;45.13;103234.72;5054499;28;20037;-64
2024/01/09 10:57:14;;;;;;;11.05;7.70;;;;;;;-0.27;45.36;103227.91;5087614;28;20031;-65
2024/01/09 10:59:41;;;;;;;8.55;6.72;;;;;;;-0.17;45.98;103219.84;5092478;28;20043;-65
2024/01/09 11:02:15;;;;;;;12.00;8.57;;;;;;;-0.08;45.66;103227.28;5058191;28;20105;-66
2024/01/09 11:04:43;;;;;;;9.30;7.55;;;;;;;-0.07;44.89;103223.56;5053685;28;20476;-64
2024/01/09 11:07:11;;;;;;;11.73;8.18;;;;;;;-0.11;44.70;103208.44;5062615;28;20468;-64
2024/01/09 11:09:39;;;;;;;11.57;8.45;;;;;;;-0.16;44.64;103209.78;5058064;28;20033;-65
2024/01/09 11:12:05;;;;;;;10.68;8.05;;;;;;;-0.20;44.80;103209.16;5069499;28;20063;-64
2024/01/09 11:14:32;;;;;;;12.55;8.65;;;;;;;-0.20;45.14;103203.69;5086505;28;20317;-65
2024/01/09 11:16:59;;;;;;;9.25;7.47;;;;;;;-0.18;44.84;103203.59;5055737;28;20033;-64